M/T Goviken — 9HA2718 — position and weather

sailwx.info

Track history (hours):
 
Tides and Currents Weather Stations Pressure Air Temp Water Temp Dewpoint Dewpoint Depression Visibility Wind Speed Wind Dir Waves Ship Positions

M/T Goviken

Last reported at 2014-Jul-23 21:32 UTC. Time now 2014-Jul-23 22:11 UTC.
Position N 52°10' E 003°42'.

Length 88 m; draft 6.4 m.

Type: Ship (hazmat cat C). MMSI: 215389000.

Date/timePositionNaut miles runAvg speedWind from/ knotsBaromVisibWave heightAir tempDewpointWater temp
2014-Jul-23 21:32N 52°10' E 003°42'0 0.0
2014-Jul-23 20:31N 52°10' E 003°42'0 0.0
2014-Jul-23 19:31N 52°10' E 003°42'0 0.0
2014-Jul-23 18:31N 52°10' E 003°42'0 0.0
2014-Jul-23 17:32N 52°10' E 003°42'0 0.0
2014-Jul-23 16:31N 52°10' E 003°42'0 0.1
2014-Jul-23 15:28N 52°10' E 003°42'0 0.0
2014-Jul-23 14:31N 52°10' E 003°42'0 0.1
2014-Jul-23 13:28N 52°10' E 003°42'0 0.0
2014-Jul-23 12:19N 52°10' E 003°42'0 0.0
2014-Jul-23 11:31N 52°10' E 003°42'0 0.2
2014-Jul-23 10:25N 52°10' E 003°42'0 0.0
2014-Jul-23 09:31N 52°10' E 003°42'0 0.0
2014-Jul-23 08:28N 52°10' E 003°42'0 0.0
2014-Jul-23 07:10N 52°10' E 003°42'0 0.0
2014-Jul-23 06:31N 52°10' E 003°42'0 0.0
2014-Jul-23 05:31N 52°10' E 003°42'0 0.0
2014-Jul-23 04:31N 52°10' E 003°42'0 0.0
2014-Jul-23 03:22N 52°10' E 003°42'0 0.1
2014-Jul-23 02:31N 52°10' E 003°42'0 0.1
2014-Jul-23 01:31N 52°10' E 003°42'0 0.0
2014-Jul-23 00:31N 52°10' E 003°42'0 0.0
2014-Jul-22 23:31N 52°10' E 003°42'0 0.1
2014-Jul-22 22:31N 52°10' E 003°42'0 0.1
2014-Jul-22 21:25N 52°10' E 003°42'0 0.0
2014-Jul-22 20:28N 52°10' E 003°42'0 0.0
2014-Jul-22 19:31N 52°10' E 003°42'0 0.0
2014-Jul-22 18:28N 52°10' E 003°42'0 0.0
2014-Jul-22 17:31N 52°10' E 003°42'0 0.0
2014-Jul-22 16:31N 52°10' E 003°42'0 0.1
2014-Jul-22 15:28N 52°10' E 003°42'0 0.0
2014-Jul-22 14:31N 52°10' E 003°42'0 0.0
2014-Jul-22 13:31N 52°10' E 003°42'0 0.1
2014-Jul-22 12:31N 52°10' E 003°42'0 0.0
2014-Jul-22 11:31N 52°10' E 003°42'0 0.0
2014-Jul-22 10:31N 52°10' E 003°42'0 0.1
2014-Jul-22 09:31N 52°10' E 003°42'0 0.1
2014-Jul-22 08:31N 52°10' E 003°42'0 0.0
2014-Jul-22 07:22N 52°10' E 003°42'0 0.0
2014-Jul-22 06:31N 52°10' E 003°42'0 0.0
2014-Jul-22 05:31N 52°10' E 003°42'0 0.0
2014-Jul-22 03:31N 52°10' E 003°42'0 0.0
2014-Jul-22 02:10N 52°10' E 003°42'0 0.0
2014-Jul-22 01:25N 52°10' E 003°42'0 0.0
2014-Jul-22 00:28N 52°10' E 003°42'0 0.1
2014-Jul-21 23:19N 52°10' E 003°42'0 0.0
2014-Jul-21 20:19N 52°10' E 003°42'0 0.0
2014-Jul-21 20:16N 52°10' E 003°42'0 0.0
2014-Jul-21 17:13N 52°10' E 003°42'0 0.0
2014-Jul-21 15:13N 52°10' E 003°42'0 0.0
2014-Jul-21 12:28N 52°10' E 003°42'0 0.1
2014-Jul-21 11:28N 52°10' E 003°42'0 0.1
2014-Jul-21 10:25N 52°10' E 003°42'0 0.0
2014-Jul-21 08:25N 52°10' E 003°42'0 0.1
2014-Jul-21 07:30N 52°10' E 003°42'9 7.6
2014-Jul-21 06:19N 52°08' E 003°28'910.5
2014-Jul-21 05:30N 52°13' E 003°16'1410.4
2014-Jul-21 04:08N 52°21' E 002°57'2110.6
2014-Jul-21 02:11N 52°33' E 002°30'2010.7
2014-Jul-21 00:21N 52°44' E 002°03'810.2
2014-Jul-20 23:33N 52°49' E 001°52'9 9.3
2014-Jul-20 22:33N 52°54' E 001°39'9 8.7
2014-Jul-20 21:33N 53°00' E 001°30'9 8.7
2014-Jul-20 20:34N 53°08' E 001°22'9 8.6
2014-Jul-20 19:33N 53°15' E 001°14'16 8.2
2014-Jul-20 17:33N 53°26' E 000°54'8 8.0
2014-Jul-20 16:34N 53°29' E 000°41'10 9.5
2014-Jul-20 15:33N 53°32' E 000°26'10 9.7
2014-Jul-20 14:33N 53°33' E 000°10'1211.9
2014-Jul-20 13:33N 53°38' W 000°08'3 2.6
2014-Jul-20 12:27N 53°39' W 000°13'0 0.0
2014-Jul-20 11:30N 53°39' W 000°13'0 0.0
2014-Jul-20 10:30N 53°39' W 000°13'0 0.0
2014-Jul-20 09:33N 53°39' W 000°13'0 0.0
2014-Jul-20 08:33N 53°39' W 000°13'0 0.0
2014-Jul-20 07:30N 53°39' W 000°13'0 0.0
2014-Jul-20 06:33N 53°39' W 000°13'0 0.0
2014-Jul-20 05:24N 53°39' W 000°13'0 0.0
2014-Jul-20 04:30N 53°39' W 000°13'0 0.0
2014-Jul-20 03:33N 53°39' W 000°13'0 0.0
2014-Jul-20 02:30N 53°39' W 000°13'0 0.0
2014-Jul-20 01:27N 53°39' W 000°13'0 0.0
2014-Jul-20 00:24N 53°39' W 000°13'0 0.0
2014-Jul-19 22:30N 53°39' W 000°13'0 0.0
2014-Jul-19 21:30N 53°39' W 000°13'0 0.0
2014-Jul-19 20:34N 53°39' W 000°13'0 0.0
2014-Jul-19 19:33N 53°39' W 000°13'0 0.0
2014-Jul-19 18:33N 53°39' W 000°13'0 0.0
2014-Jul-19 17:27N 53°39' W 000°13'0 0.0
2014-Jul-19 16:33N 53°39' W 000°13'4 4.0
2014-Jul-19 15:33N 53°37' W 000°06'8 8.1
2014-Jul-19 14:33N 53°34' E 000°06'8 7.9
2014-Jul-19 13:33N 53°33' E 000°19'8 8.4
2014-Jul-19 12:33N 53°31' E 000°33'1010.0
2014-Jul-19 11:33N 53°28' E 000°49'9 9.4
2014-Jul-19 10:33N 53°24' E 001°03'9 8.9
2014-Jul-19 09:33N 53°17' E 001°12'10 9.9
2014-Jul-19 08:33N 53°09' E 001°21'1010.2
2014-Jul-19 07:33N 53°00' E 001°30'1110.7
2014-Jul-19 06:33N 52°53' E 001°42'1110.6
2014-Jul-19 05:33N 52°47' E 001°57'1411.0
2014-Jul-19 04:20N 52°35' E 002°07'8 9.9
2014-Jul-19 03:33N 52°28' E 002°12'9 8.9
2014-Jul-19 02:33N 52°20' E 002°18'9 8.7
2014-Jul-19 01:32N 52°11' E 002°23'8 8.5
2014-Jul-19 00:33N 52°04' E 002°29'22 9.6
2014-Jul-18 22:16N 51°51' E 002°58'710.0
2014-Jul-18 21:33N 51°47' E 003°08'9 9.3
2014-Jul-18 20:32N 51°41' E 003°19'1211.9
2014-Jul-18 19:33N 51°30' E 003°27'9 9.4
2014-Jul-18 18:33N 51°26' E 003°41'6 3.1
2014-Jul-18 16:29N 51°21' E 003°46'0 0.0
2014-Jul-18 15:05N 51°21' E 003°46'0 0.0
2014-Jul-18 14:29N 51°21' E 003°46'0 0.0
2014-Jul-18 13:32N 51°21' E 003°46'0 0.0
2014-Jul-18 12:23N 51°21' E 003°46'0 0.0
2014-Jul-18 11:11N 51°21' E 003°46'0 0.0
2014-Jul-18 10:29N 51°21' E 003°46'0 0.0
2014-Jul-18 08:29N 51°21' E 003°46'0 0.0
2014-Jul-18 07:29N 51°21' E 003°46'0 0.0
2014-Jul-18 06:14N 51°21' E 003°46'0 0.0
2014-Jul-18 05:29N 51°21' E 003°46'0 0.0
2014-Jul-18 04:11N 51°21' E 003°46'0 0.0
2014-Jul-17 19:23N 51°21' E 003°46'0 0.0
2014-Jul-17 17:26N 51°21' E 003°46'0 0.0
2014-Jul-17 16:32N 51°21' E 003°46'0 0.0
2014-Jul-17 10:08N 51°21' E 003°46'0 0.2
2014-Jul-17 09:33N 51°21' E 003°46'6 6.4
2014-Jul-17 08:33N 51°26' E 003°40'7 7.0
2014-Jul-17 07:33N 51°25' E 003°29'9 9.1
2014-Jul-17 06:33N 51°25' E 003°15'1110.8
2014-Jul-17 05:33N 51°23' E 002°57'9 9.5
2014-Jul-17 04:33N 51°22' E 002°42'7 6.2
2014-Jul-17 03:30N 51°20' E 002°32'0 0.0
2014-Jul-17 02:33N 51°20' E 002°32'0 0.1
2014-Jul-17 01:24N 51°20' E 002°32'0 0.1
2014-Jul-17 00:33N 51°20' E 002°32'0 0.0
2014-Jul-16 23:30N 51°20' E 002°32'0 0.0
2014-Jul-16 22:33N 51°20' E 002°32'0 0.0
2014-Jul-16 21:33N 51°20' E 002°32'0 0.2
2014-Jul-16 20:33N 51°20' E 002°32'0 0.1
2014-Jul-16 19:33N 51°20' E 002°32'0 0.0
2014-Jul-16 18:33N 51°20' E 002°32'0 0.0
2014-Jul-16 17:33N 51°20' E 002°32'0 0.0
2014-Jul-16 16:30N 51°20' E 002°32'0 0.0
2014-Jul-16 15:33N 51°20' E 002°32'0 0.0
2014-Jul-16 14:27N 51°20' E 002°32'0 0.1
2014-Jul-16 13:33N 51°20' E 002°32'0 0.1
2014-Jul-16 12:27N 51°20' E 002°32'0 0.1
2014-Jul-16 11:30N 51°20' E 002°32'0 0.0
2014-Jul-16 10:30N 51°20' E 002°32'0 0.0
2014-Jul-16 09:27N 51°20' E 002°32'0 0.1
2014-Jul-16 08:33N 51°20' E 002°32'0 0.1
2014-Jul-16 07:33N 51°20' E 002°32'0 0.1
2014-Jul-16 06:33N 51°20' E 002°32'0 0.0
2014-Jul-16 05:21N 51°20' E 002°32'0 0.0
2014-Jul-16 04:33N 51°20' E 002°32'0 0.0
2014-Jul-16 03:30N 51°20' E 002°32'0 0.0
2014-Jul-16 02:33N 51°20' E 002°32'0 0.1
2014-Jul-16 01:33N 51°20' E 002°32'0 0.1
2014-Jul-16 00:24N 51°20' E 002°32'0 0.0
2014-Jul-15 23:33N 51°20' E 002°32'0 0.0
2014-Jul-15 22:15N 51°20' E 002°32'0 0.0
2014-Jul-15 21:33N 51°20' E 002°32'0 0.1
2014-Jul-15 20:30N 51°20' E 002°32'0 0.2
2014-Jul-15 19:33N 51°20' E 002°32'0 0.0
2014-Jul-15 18:33N 51°20' E 002°32'0 0.0
2014-Jul-15 17:33N 51°20' E 002°32'0 0.0
2014-Jul-15 16:30N 51°20' E 002°32'0 0.0
2014-Jul-15 15:33N 51°20' E 002°32'0 0.0
2014-Jul-15 14:30N 51°20' E 002°32'0 0.0
2014-Jul-15 13:33N 51°20' E 002°32'0 0.1
2014-Jul-15 12:30N 51°20' E 002°32'0 0.1
2014-Jul-15 11:33N 51°20' E 002°32'0 0.0
2014-Jul-15 10:33N 51°20' E 002°32'0 0.2
2014-Jul-15 09:33N 51°20' E 002°32'0 0.1
2014-Jul-15 08:33N 51°20' E 002°32'0 0.3
2014-Jul-15 07:33N 51°20' E 002°32'0 0.0
2014-Jul-15 06:33N 51°20' E 002°32'0 0.0
2014-Jul-15 05:33N 51°20' E 002°32'0 0.0
2014-Jul-15 04:33N 51°20' E 002°32'0 0.0
2014-Jul-15 03:33N 51°20' E 002°32'0 0.0
2014-Jul-15 02:33N 51°20' E 002°32'0 0.0
2014-Jul-15 01:30N 51°20' E 002°32'0 0.1
2014-Jul-15 00:30N 51°20' E 002°32'0 0.2
2014-Jul-14 23:30N 51°20' E 002°32'0 0.1
2014-Jul-14 22:33N 51°20' E 002°32'0 0.0
2014-Jul-14 21:30N 51°20' E 002°32'0 0.0
2014-Jul-14 20:33N 51°20' E 002°32'0 0.2
2014-Jul-14 19:33N 51°20' E 002°32'0 0.0
2014-Jul-14 18:24N 51°20' E 002°32'0 0.0
2014-Jul-14 17:33N 51°20' E 002°32'0 0.0
2014-Jul-14 16:27N 51°20' E 002°32'0 0.0
2014-Jul-14 15:33N 51°20' E 002°32'0 0.0
2014-Jul-14 14:30N 51°20' E 002°32'0 0.0
2014-Jul-14 13:30N 51°20' E 002°32'0 0.1
2014-Jul-14 12:18N 51°20' E 002°32'0 0.1
2014-Jul-14 11:33N 51°20' E 002°32'0 0.1
2014-Jul-14 10:33N 51°20' E 002°32'0 0.0
2014-Jul-14 09:33N 51°20' E 002°32'0 0.0
2014-Jul-14 08:33N 51°20' E 002°32'0 0.0
2014-Jul-14 07:33N 51°20' E 002°32'0 0.1
2014-Jul-14 06:33N 51°20' E 002°32'0 0.1
2014-Jul-14 05:30N 51°20' E 002°32'0 0.1
2014-Jul-14 04:27N 51°20' E 002°32'0 0.0
2014-Jul-14 03:30N 51°20' E 002°32'0 0.0
2014-Jul-14 02:21N 51°20' E 002°32'0 0.0
2014-Jul-14 01:15N 51°20' E 002°32'0 0.0
2014-Jul-14 00:21N 51°20' E 002°32'0 0.1
2014-Jul-13 23:06N 51°20' E 002°32'0 0.1
2014-Jul-13 22:24N 51°20' E 002°32'0 0.0
2014-Jul-13 21:33N 51°20' E 002°32'  
Track history (hours):
 
Tides and Currents Weather Stations Pressure Air Temp Water Temp Dewpoint Dewpoint Depression Visibility Wind Speed Wind Dir Waves Ship Positions

M/T Goviken

Last reported at 2014-Jul-23 21:32 UTC. Time now 2014-Jul-23 22:11 UTC.
Position N 52°10' E 003°42'.

Length 88 m; draft 6.4 m.

Type: Ship (hazmat cat C). MMSI: 215389000.

Date/timePositionNaut miles runAvg speedWind from/ knotsBaromVisibWave heightAir tempDewpointWater temp
2014-Jul-23 21:32N 52°10' E 003°42'0 0.0
2014-Jul-23 20:31N 52°10' E 003°42'0 0.0
2014-Jul-23 19:31N 52°10' E 003°42'0 0.0
2014-Jul-23 18:31N 52°10' E 003°42'0 0.0
2014-Jul-23 17:32N 52°10' E 003°42'0 0.0
2014-Jul-23 16:31N 52°10' E 003°42'0 0.1
2014-Jul-23 15:28N 52°10' E 003°42'0 0.0
2014-Jul-23 14:31N 52°10' E 003°42'0 0.1
2014-Jul-23 13:28N 52°10' E 003°42'0 0.0
2014-Jul-23 12:19N 52°10' E 003°42'0 0.0
2014-Jul-23 11:31N 52°10' E 003°42'0 0.2
2014-Jul-23 10:25N 52°10' E 003°42'0 0.0
2014-Jul-23 09:31N 52°10' E 003°42'0 0.0
2014-Jul-23 08:28N 52°10' E 003°42'0 0.0
2014-Jul-23 07:10N 52°10' E 003°42'0 0.0
2014-Jul-23 06:31N 52°10' E 003°42'0 0.0
2014-Jul-23 05:31N 52°10' E 003°42'0 0.0
2014-Jul-23 04:31N 52°10' E 003°42'0 0.0
2014-Jul-23 03:22N 52°10' E 003°42'0 0.1
2014-Jul-23 02:31N 52°10' E 003°42'0 0.1
2014-Jul-23 01:31N 52°10' E 003°42'0 0.0
2014-Jul-23 00:31N 52°10' E 003°42'0 0.0
2014-Jul-22 23:31N 52°10' E 003°42'0 0.1
2014-Jul-22 22:31N 52°10' E 003°42'0 0.1
2014-Jul-22 21:25N 52°10' E 003°42'0 0.0
2014-Jul-22 20:28N 52°10' E 003°42'0 0.0
2014-Jul-22 19:31N 52°10' E 003°42'0 0.0
2014-Jul-22 18:28N 52°10' E 003°42'0 0.0
2014-Jul-22 17:31N 52°10' E 003°42'0 0.0
2014-Jul-22 16:31N 52°10' E 003°42'0 0.1
2014-Jul-22 15:28N 52°10' E 003°42'0 0.0
2014-Jul-22 14:31N 52°10' E 003°42'0 0.0
2014-Jul-22 13:31N 52°10' E 003°42'0 0.1
2014-Jul-22 12:31N 52°10' E 003°42'0 0.0
2014-Jul-22 11:31N 52°10' E 003°42'0 0.0
2014-Jul-22 10:31N 52°10' E 003°42'0 0.1
2014-Jul-22 09:31N 52°10' E 003°42'0 0.1
2014-Jul-22 08:31N 52°10' E 003°42'0 0.0
2014-Jul-22 07:22N 52°10' E 003°42'0 0.0
2014-Jul-22 06:31N 52°10' E 003°42'0 0.0
2014-Jul-22 05:31N 52°10' E 003°42'0 0.0
2014-Jul-22 03:31N 52°10' E 003°42'0 0.0
2014-Jul-22 02:10N 52°10' E 003°42'0 0.0
2014-Jul-22 01:25N 52°10' E 003°42'0 0.0
2014-Jul-22 00:28N 52°10' E 003°42'0 0.1
2014-Jul-21 23:19N 52°10' E 003°42'0 0.0
2014-Jul-21 20:19N 52°10' E 003°42'0 0.0
2014-Jul-21 20:16N 52°10' E 003°42'0 0.0
2014-Jul-21 17:13N 52°10' E 003°42'0 0.0
2014-Jul-21 15:13N 52°10' E 003°42'0 0.0
2014-Jul-21 12:28N 52°10' E 003°42'0 0.1
2014-Jul-21 11:28N 52°10' E 003°42'0 0.1
2014-Jul-21 10:25N 52°10' E 003°42'0 0.0
2014-Jul-21 08:25N 52°10' E 003°42'0 0.1
2014-Jul-21 07:30N 52°10' E 003°42'9 7.6
2014-Jul-21 06:19N 52°08' E 003°28'910.5
2014-Jul-21 05:30N 52°13' E 003°16'1410.4
2014-Jul-21 04:08N 52°21' E 002°57'2110.6
2014-Jul-21 02:11N 52°33' E 002°30'2010.7
2014-Jul-21 00:21N 52°44' E 002°03'810.2
2014-Jul-20 23:33N 52°49' E 001°52'9 9.3
2014-Jul-20 22:33N 52°54' E 001°39'9 8.7
2014-Jul-20 21:33N 53°00' E 001°30'9 8.7
2014-Jul-20 20:34N 53°08' E 001°22'9 8.6
2014-Jul-20 19:33N 53°15' E 001°14'16 8.2
2014-Jul-20 17:33N 53°26' E 000°54'8 8.0
2014-Jul-20 16:34N 53°29' E 000°41'10 9.5
2014-Jul-20 15:33N 53°32' E 000°26'10 9.7
2014-Jul-20 14:33N 53°33' E 000°10'1211.9
2014-Jul-20 13:33N 53°38' W 000°08'3 2.6
2014-Jul-20 12:27N 53°39' W 000°13'0 0.0
2014-Jul-20 11:30N 53°39' W 000°13'0 0.0
2014-Jul-20 10:30N 53°39' W 000°13'0 0.0
2014-Jul-20 09:33N 53°39' W 000°13'0 0.0
2014-Jul-20 08:33N 53°39' W 000°13'0 0.0
2014-Jul-20 07:30N 53°39' W 000°13'0 0.0
2014-Jul-20 06:33N 53°39' W 000°13'0 0.0
2014-Jul-20 05:24N 53°39' W 000°13'0 0.0
2014-Jul-20 04:30N 53°39' W 000°13'0 0.0
2014-Jul-20 03:33N 53°39' W 000°13'0 0.0
2014-Jul-20 02:30N 53°39' W 000°13'0 0.0
2014-Jul-20 01:27N 53°39' W 000°13'0 0.0
2014-Jul-20 00:24N 53°39' W 000°13'0 0.0
2014-Jul-19 22:30N 53°39' W 000°13'0 0.0
2014-Jul-19 21:30N 53°39' W 000°13'0 0.0
2014-Jul-19 20:34N 53°39' W 000°13'0 0.0
2014-Jul-19 19:33N 53°39' W 000°13'0 0.0
2014-Jul-19 18:33N 53°39' W 000°13'0 0.0
2014-Jul-19 17:27N 53°39' W 000°13'0 0.0
2014-Jul-19 16:33N 53°39' W 000°13'4 4.0
2014-Jul-19 15:33N 53°37' W 000°06'8 8.1
2014-Jul-19 14:33N 53°34' E 000°06'8 7.9
2014-Jul-19 13:33N 53°33' E 000°19'8 8.4
2014-Jul-19 12:33N 53°31' E 000°33'1010.0
2014-Jul-19 11:33N 53°28' E 000°49'9 9.4
2014-Jul-19 10:33N 53°24' E 001°03'9 8.9
2014-Jul-19 09:33N 53°17' E 001°12'10 9.9
2014-Jul-19 08:33N 53°09' E 001°21'1010.2
2014-Jul-19 07:33N 53°00' E 001°30'1110.7
2014-Jul-19 06:33N 52°53' E 001°42'1110.6
2014-Jul-19 05:33N 52°47' E 001°57'1411.0
2014-Jul-19 04:20N 52°35' E 002°07'8 9.9
2014-Jul-19 03:33N 52°28' E 002°12'9 8.9
2014-Jul-19 02:33N 52°20' E 002°18'9 8.7
2014-Jul-19 01:32N 52°11' E 002°23'8 8.5
2014-Jul-19 00:33N 52°04' E 002°29'22 9.6
2014-Jul-18 22:16N 51°51' E 002°58'710.0
2014-Jul-18 21:33N 51°47' E 003°08'9 9.3
2014-Jul-18 20:32N 51°41' E 003°19'1211.9
2014-Jul-18 19:33N 51°30' E 003°27'9 9.4
2014-Jul-18 18:33N 51°26' E 003°41'6 3.1
2014-Jul-18 16:29N 51°21' E 003°46'0 0.0
2014-Jul-18 15:05N 51°21' E 003°46'0 0.0
2014-Jul-18 14:29N 51°21' E 003°46'0 0.0
2014-Jul-18 13:32N 51°21' E 003°46'0 0.0
2014-Jul-18 12:23N 51°21' E 003°46'0 0.0
2014-Jul-18 11:11N 51°21' E 003°46'0 0.0
2014-Jul-18 10:29N 51°21' E 003°46'0 0.0
2014-Jul-18 08:29N 51°21' E 003°46'0 0.0
2014-Jul-18 07:29N 51°21' E 003°46'0 0.0
2014-Jul-18 06:14N 51°21' E 003°46'0 0.0
2014-Jul-18 05:29N 51°21' E 003°46'0 0.0
2014-Jul-18 04:11N 51°21' E 003°46'0 0.0
2014-Jul-17 19:23N 51°21' E 003°46'0 0.0
2014-Jul-17 17:26N 51°21' E 003°46'0 0.0
2014-Jul-17 16:32N 51°21' E 003°46'0 0.0
2014-Jul-17 10:08N 51°21' E 003°46'0 0.2
2014-Jul-17 09:33N 51°21' E 003°46'6 6.4
2014-Jul-17 08:33N 51°26' E 003°40'7 7.0
2014-Jul-17 07:33N 51°25' E 003°29'9 9.1
2014-Jul-17 06:33N 51°25' E 003°15'1110.8
2014-Jul-17 05:33N 51°23' E 002°57'9 9.5
2014-Jul-17 04:33N 51°22' E 002°42'7 6.2
2014-Jul-17 03:30N 51°20' E 002°32'0 0.0
2014-Jul-17 02:33N 51°20' E 002°32'0 0.1
2014-Jul-17 01:24N 51°20' E 002°32'0 0.1
2014-Jul-17 00:33N 51°20' E 002°32'0 0.0
2014-Jul-16 23:30N 51°20' E 002°32'0 0.0
2014-Jul-16 22:33N 51°20' E 002°32'0 0.0
2014-Jul-16 21:33N 51°20' E 002°32'0 0.2
2014-Jul-16 20:33N 51°20' E 002°32'0 0.1
2014-Jul-16 19:33N 51°20' E 002°32'0 0.0
2014-Jul-16 18:33N 51°20' E 002°32'0 0.0
2014-Jul-16 17:33N 51°20' E 002°32'0 0.0
2014-Jul-16 16:30N 51°20' E 002°32'0 0.0
2014-Jul-16 15:33N 51°20' E 002°32'0 0.0
2014-Jul-16 14:27N 51°20' E 002°32'0 0.1
2014-Jul-16 13:33N 51°20' E 002°32'0 0.1
2014-Jul-16 12:27N 51°20' E 002°32'0 0.1
2014-Jul-16 11:30N 51°20' E 002°32'0 0.0
2014-Jul-16 10:30N 51°20' E 002°32'0 0.0
2014-Jul-16 09:27N 51°20' E 002°32'0 0.1
2014-Jul-16 08:33N 51°20' E 002°32'0 0.1
2014-Jul-16 07:33N 51°20' E 002°32'0 0.1
2014-Jul-16 06:33N 51°20' E 002°32'0 0.0
2014-Jul-16 05:21N 51°20' E 002°32'0 0.0
2014-Jul-16 04:33N 51°20' E 002°32'0 0.0
2014-Jul-16 03:30N 51°20' E 002°32'0 0.0
2014-Jul-16 02:33N 51°20' E 002°32'0 0.1
2014-Jul-16 01:33N 51°20' E 002°32'0 0.1
2014-Jul-16 00:24N 51°20' E 002°32'0 0.0
2014-Jul-15 23:33N 51°20' E 002°32'0 0.0
2014-Jul-15 22:15N 51°20' E 002°32'0 0.0
2014-Jul-15 21:33N 51°20' E 002°32'0 0.1
2014-Jul-15 20:30N 51°20' E 002°32'0 0.2
2014-Jul-15 19:33N 51°20' E 002°32'0 0.0
2014-Jul-15 18:33N 51°20' E 002°32'0 0.0
2014-Jul-15 17:33N 51°20' E 002°32'0 0.0
2014-Jul-15 16:30N 51°20' E 002°32'0 0.0
2014-Jul-15 15:33N 51°20' E 002°32'0 0.0
2014-Jul-15 14:30N 51°20' E 002°32'0 0.0
2014-Jul-15 13:33N 51°20' E 002°32'0 0.1
2014-Jul-15 12:30N 51°20' E 002°32'0 0.1
2014-Jul-15 11:33N 51°20' E 002°32'0 0.0
2014-Jul-15 10:33N 51°20' E 002°32'0 0.2
2014-Jul-15 09:33N 51°20' E 002°32'0 0.1
2014-Jul-15 08:33N 51°20' E 002°32'0 0.3
2014-Jul-15 07:33N 51°20' E 002°32'0 0.0
2014-Jul-15 06:33N 51°20' E 002°32'0 0.0
2014-Jul-15 05:33N 51°20' E 002°32'0 0.0
2014-Jul-15 04:33N 51°20' E 002°32'0 0.0
2014-Jul-15 03:33N 51°20' E 002°32'0 0.0
2014-Jul-15 02:33N 51°20' E 002°32'0 0.0
2014-Jul-15 01:30N 51°20' E 002°32'0 0.1
2014-Jul-15 00:30N 51°20' E 002°32'0 0.2
2014-Jul-14 23:30N 51°20' E 002°32'0 0.1
2014-Jul-14 22:33N 51°20' E 002°32'0 0.0
2014-Jul-14 21:30N 51°20' E 002°32'0 0.0
2014-Jul-14 20:33N 51°20' E 002°32'0 0.2
2014-Jul-14 19:33N 51°20' E 002°32'0 0.0
2014-Jul-14 18:24N 51°20' E 002°32'0 0.0
2014-Jul-14 17:33N 51°20' E 002°32'0 0.0
2014-Jul-14 16:27N 51°20' E 002°32'0 0.0
2014-Jul-14 15:33N 51°20' E 002°32'0 0.0
2014-Jul-14 14:30N 51°20' E 002°32'0 0.0
2014-Jul-14 13:30N 51°20' E 002°32'0 0.1
2014-Jul-14 12:18N 51°20' E 002°32'0 0.1
2014-Jul-14 11:33N 51°20' E 002°32'0 0.1
2014-Jul-14 10:33N 51°20' E 002°32'0 0.0
2014-Jul-14 09:33N 51°20' E 002°32'0 0.0
2014-Jul-14 08:33N 51°20' E 002°32'0 0.0
2014-Jul-14 07:33N 51°20' E 002°32'0 0.1
2014-Jul-14 06:33N 51°20' E 002°32'0 0.1
2014-Jul-14 05:30N 51°20' E 002°32'0 0.1
2014-Jul-14 04:27N 51°20' E 002°32'0 0.0
2014-Jul-14 03:30N 51°20' E 002°32'0 0.0
2014-Jul-14 02:21N 51°20' E 002°32'0 0.0
2014-Jul-14 01:15N 51°20' E 002°32'0 0.0
2014-Jul-14 00:21N 51°20' E 002°32'0 0.1
2014-Jul-13 23:06N 51°20' E 002°32'0 0.1
2014-Jul-13 22:24N 51°20' E 002°32'0 0.0
2014-Jul-13 21:33N 51°20' E 002°32'  

Dump ship's entire track history